Pagina principale
METAR-TAF:

METAR-TAF

Aeroporti :

Pontoise, Francia

latitudine: 49-05-48N, longitudine: 002-02-27E, altezza: 99 m

Osservazione

Il bollettino è stato emesso 30 minuti fa, alle 18:30 UTC
Vento 11 kt da nord-ovest, variando fra ovest e nord/nord-ovest
Temperature 9°C
Umidità 87%
Pressione 1008 hPa
Visibilità: 5000 m
foschia

METAR: LFPT 161830Z AUTO 31011KT 260V330 5000 BR BKN010/// BKN017/// OVC031/// ///CB 09/07 Q1008

Ora: 20:00 (19:00 UTC)


TAF: mancante

Osservazioni e previsioni meteorologiche di più di 4000 aeroporti (messaggi METAR e TAF).

Le stazioni disponibili sono rappresentate dai dischi gialli e rossi sulla carta.

Puntare il mouse per vedere il nome della stazione.

Clicca sopra per visualizzare le osservazioni e previsioni meteorologiche.

Per cambiare la mappa : fare clic sui pulsanti verdi con una croce nera per ingrandire, il pulsante verde con un trattino per diminuire, o sulla freccia verde per le mappe adiacenti.


METAR-TAF: